»·PEaware :: N8833D LEBL-LIRF

N8833D :: LEBL-LIRF

FLIGHT INFORMATION

Flight Status: Arrived
Operator: Privately registered:
United States
More flights under this callsign
Pilot: Cooper L. (8467)
Aircraft: AIRBUS A330-200
(A332)
More flights by this aircraft type
Origin: LEBL El Prat
Spain
Destination: LIRF Fiumicino
Italy
More flights between these airports :: More routes between these airports
Route: DALIN 1K
File this flight plan on PilotEdge
Remarks:
Altitude:
(Current/Filed)
39,000ft
Speed:
(Current/Filed)
480kts
Departed: 09-Oct-15 10:50 PM
Arrived: 10-Oct-15 12:11 AM
Distance/Time
Traveled:
457nm/1:21
Distance/Time
To Go:
Arrived

Flight Plot

Page will automatically refresh every two minutes.


Map Options




Map Legend


Flown Route
Filed Route
Departure Airport
Arrival Airport
Navaid (VOR, NDB)
Fix

Horizontal Profiles

Position Reports

Time Latitude Longitude Heading Altitude Ground
Speed
09-Oct-15 22:48 41.312130 2.096658 24 665ft 164kts
09-Oct-15 22:49 41.315791 2.162305 102 2562ft 273kts
09-Oct-15 22:50 41.328121 2.258177 62 3492ft 266kts
09-Oct-15 22:51 41.358304 2.350247 63 5367ft 278kts
09-Oct-15 22:52 41.383788 2.431625 64 7649ft 295kts
09-Oct-15 22:53 41.416078 2.535879 64 10225ft 318kts
09-Oct-15 22:54 41.468040 2.675480 59 11635ft 403kts
09-Oct-15 22:55 41.523461 2.811088 59 14346ft 427kts
09-Oct-15 22:56 41.571533 2.928846 59 16560ft 445kts
09-Oct-15 22:57 41.631897 3.077598 59 19060ft 465kts
09-Oct-15 22:58 41.692649 3.232972 65 21312ft 485kts
09-Oct-15 22:59 41.733032 3.406539 91 23368ft 501kts
09-Oct-15 23:00 41.734861 3.595898 91 25316ft 518kts
09-Oct-15 23:01 41.735343 3.791776 91 27124ft 534kts
09-Oct-15 23:02 41.735469 3.992988 91 28950ft 544kts
09-Oct-15 23:03 41.735637 4.194913 92 31064ft 543kts
09-Oct-15 23:04 41.735122 4.396463 93 32833ft 542kts
09-Oct-15 23:05 41.734155 4.600653 93 33493ft 565kts
09-Oct-15 23:06 41.764803 4.807698 73 35016ft 568kts
09-Oct-15 23:07 41.797704 5.012306 99 36394ft 557kts
09-Oct-15 23:08 41.743125 5.200165 121 37394ft 541kts
09-Oct-15 23:09 41.678804 5.382292 122 38328ft 542kts
09-Oct-15 23:10 41.614162 5.563477 122 39108ft 541kts
09-Oct-15 23:11 41.549031 5.744802 122 39089ft 542kts
09-Oct-15 23:12 41.483709 5.926140 121 39087ft 542kts
09-Oct-15 23:13 41.418117 6.106724 122 39089ft 542kts
09-Oct-15 23:14 41.352720 6.287046 122 39087ft 541kts
09-Oct-15 23:15 41.286809 6.466223 122 39087ft 541kts
09-Oct-15 23:16 41.220469 6.645415 122 38959ft 542kts
09-Oct-15 23:17 41.153576 6.824983 122 38927ft 543kts
09-Oct-15 23:18 41.086941 7.004266 117 38921ft 547kts
09-Oct-15 23:19 41.065999 7.207019 98 38922ft 561kts
09-Oct-15 23:20 41.054245 7.412955 97 38923ft 561kts
09-Oct-15 23:21 41.042194 7.619526 97 38925ft 561kts
09-Oct-15 23:22 40.997052 7.806660 139 38943ft 526kts
09-Oct-15 23:23 40.901025 7.945657 138 38924ft 525kts
09-Oct-15 23:24 40.866980 8.130925 91 38911ft 565kts
09-Oct-15 23:25 40.872711 8.336986 90 38922ft 565kts
09-Oct-15 23:26 40.879476 8.541250 89 38924ft 565kts
09-Oct-15 23:27 40.886274 8.745942 89 38985ft 565kts
09-Oct-15 23:28 40.892754 8.951935 89 39037ft 565kts
09-Oct-15 23:29 40.898996 9.154789 89 38919ft 566kts
09-Oct-15 23:30 40.904969 9.360421 90 38922ft 566kts
09-Oct-15 23:31 40.910372 9.566989 90 38924ft 566kts
09-Oct-15 23:32 40.916152 9.774448 89 38925ft 566kts
09-Oct-15 23:33 40.922500 9.984046 89 34686ft 576kts
09-Oct-15 23:34 40.941158 10.182383 61 31289ft 552kts
09-Oct-15 23:35 41.027885 10.350858 52 26821ft 540kts
09-Oct-15 23:36 41.107628 10.509033 53 24739ft 514kts
09-Oct-15 23:37 41.181307 10.658454 54 23527ft 476kts
09-Oct-15 23:38 41.248010 10.796608 54 21774ft 424kts
09-Oct-15 23:39 41.309280 10.926115 54 19124ft 405kts
09-Oct-15 23:40 41.367000 11.050271 55 16570ft 386kts
09-Oct-15 23:41 41.420895 11.168929 57 14041ft 368kts
09-Oct-15 23:42 41.470397 11.284963 58 11568ft 351kts
09-Oct-15 23:43 41.514341 11.396269 59 9967ft 326kts
09-Oct-15 23:44 41.547045 11.486846 60 9970ft 310kts
09-Oct-15 23:45 41.583347 11.590364 59 9971ft 310kts
09-Oct-15 23:46 41.621791 11.693759 58 9971ft 309kts
09-Oct-15 23:47 41.661368 11.794040 56 9971ft 309kts
09-Oct-15 23:48 41.700670 11.888959 54 9175ft 276kts
09-Oct-15 23:49 41.737665 11.974236 53 7942ft 262kts
09-Oct-15 23:50 41.774965 12.055249 52 6407ft 261kts
09-Oct-15 23:51 41.812289 12.131525 52 5970ft 244kts
09-Oct-15 23:52 41.849910 12.207542 52 5970ft 244kts
09-Oct-15 23:53 41.887127 12.283143 52 5980ft 247kts
09-Oct-15 23:54 41.923943 12.357837 51 5972ft 246kts
09-Oct-15 23:55 41.962653 12.434440 52 5966ft 261kts
09-Oct-15 23:56 42.014677 12.484564 330 5979ft 237kts
09-Oct-15 23:57 42.057847 12.422126 310 5973ft 240kts
09-Oct-15 23:58 42.091135 12.346942 264 5973ft 250kts
09-Oct-15 23:59 42.050789 12.279337 235 5118ft 250kts
10-Oct-15 00:00 42.007348 12.207706 232 4974ft 249kts
10-Oct-15 00:01 41.969130 12.150043 231 4977ft 249kts
10-Oct-15 00:02 41.919133 12.066521 223 4522ft 248kts
10-Oct-15 00:03 41.858828 12.024398 198 3320ft 237kts
10-Oct-15 00:04 41.807914 12.012713 179 2540ft 218kts
10-Oct-15 00:05 41.749565 12.025824 157 1970ft 212kts
10-Oct-15 00:06 41.714209 12.071356 60 2000ft 157kts
10-Oct-15 00:07 41.745876 12.113100 50 1590ft 163kts
10-Oct-15 00:08 41.771799 12.163661 57 1370ft 164kts
10-Oct-15 00:09 41.793852 12.211413 66 690ft 135kts
10-Oct-15 00:10 41.803182 12.246292 89 28ft 11kts
10-Oct-15 00:11 41.799036 12.248338 185 28ft 10kts

Navigation Log

Ident Type
1. LEBL Airport
2. DALIN Fix
3. LIRF Airport